Time;durP1;ratioP1;P1;durP2;ratioP2;P2;SDS_P1;SDS_P2;PMS_P1;PMS_P2;Temp;Humidity;BMP_temperature;BMP_pressure;BME280_temperature;BME280_humidity;BME280_pressure;Samples;Min_cycle;Max_cycle;Signal;HPM_P1;HPM_P2
2022/06/22 00:01:54;;;;;;;17.90;14.20;;;;;;;24.82;73.93;98614.91;5014567;28;20177;-87
2022/06/22 00:04:52;;;;;;;15.37;13.53;;;;;;;23.25;74.19;98386.84;5014327;28;20451;-88
2022/06/22 00:07:19;;;;;;;18.83;13.70;;;;;;;24.52;75.03;98634.63;4953201;28;20712;-86
2022/06/22 00:09:46;;;;;;;22.93;14.10;;;;;;;24.43;75.51;98632.25;4953341;29;20199;-84
2022/06/22 00:12:31;;;;;;;19.17;14.07;;;;;;;24.36;75.88;98637.63;4953685;29;20280;-86
2022/06/22 00:14:59;;;;;;;19.53;13.93;;;;;;;23.98;75.33;98555.72;4953988;29;20172;-86
2022/06/22 00:17:31;;;;;;;17.03;13.70;;;;;;;24.43;75.18;98637.41;4953376;29;20204;-85
2022/06/22 00:20:21;;;;;;;19.10;13.77;;;;;;;23.96;75.01;98558.31;4954005;29;20169;-86
2022/06/22 00:22:47;;;;;;;17.83;13.23;;;;;;;24.48;75.17;98639.88;4953298;29;20252;-87
2022/06/22 00:25:27;;;;;;;18.27;13.07;;;;;;;24.27;76.02;98636.09;4953372;29;20688;-86
2022/06/22 00:27:52;;;;;;;18.17;13.97;;;;;;;24.34;75.91;98639.38;4953125;29;20172;-86
2022/06/22 00:30:30;;;;;;;17.97;13.50;;;;;;;24.30;75.62;98638.59;4952926;29;20189;-86
2022/06/22 00:33:11;;;;;;;18.47;13.03;;;;;;;24.05;75.57;98593.47;4953076;29;20218;-86
2022/06/22 00:35:55;;;;;;;17.37;13.27;;;;;;;24.33;75.19;98635.09;4952799;29;20172;-87
2022/06/22 00:38:29;;;;;;;21.03;13.43;;;;;;;24.35;74.63;98625.56;4952884;29;20864;-85
2022/06/22 00:41:00;;;;;;;15.10;12.23;;;;;;;24.30;74.16;98617.06;4952526;29;20731;-84
2022/06/22 00:43:30;;;;;;;14.53;12.40;;;;;;;24.40;73.79;98626.28;4962478;28;20663;-86
2022/06/22 00:45:57;;;;;;;15.40;12.53;;;;;;;24.23;74.06;98608.56;5012452;28;20167;-86
2022/06/22 00:48:33;;;;;;;16.03;12.37;;;;;;;24.22;74.00;98600.88;4995285;28;20520;-86
2022/06/22 00:51:01;;;;;;;15.33;12.40;;;;;;;24.40;74.12;98637.50;5013212;28;20162;-86
2022/06/22 00:53:38;;;;;;;16.77;12.47;;;;;;;24.12;74.63;98605.38;4995324;28;20657;-85
2022/06/22 00:56:25;;;;;;;15.33;12.43;;;;;;;24.37;74.36;98644.47;5014464;28;20167;-86
2022/06/22 00:58:53;;;;;;;15.07;12.47;;;;;;;24.16;75.03;98645.84;5021617;28;20205;-87
2022/06/22 01:01:26;;;;;;;17.23;12.70;;;;;;;24.18;74.84;98651.81;5014685;28;20547;-86
2022/06/22 01:04:19;;;;;;;17.43;13.23;;;;;;;23.60;75.45;98572.06;5013273;28;20163;-87
2022/06/22 01:06:59;;;;;;;17.47;13.50;;;;;;;24.12;75.72;98661.47;4972188;28;20195;-87
2022/06/22 01:09:31;;;;;;;17.90;13.90;;;;;;;22.94;75.33;98475.34;4971547;28;20263;-86
2022/06/22 01:12:16;;;;;;;19.23;15.00;;;;;;;23.86;76.67;98665.44;4971361;28;20195;-86
2022/06/22 01:15:20;;;;;;;21.77;15.33;;;;;;;23.89;76.70;98675.72;4914120;29;20220;-86
2022/06/22 01:17:57;;;;;;;19.67;15.13;;;;;;;23.86;77.12;98674.91;4913961;29;20213;-86
2022/06/22 01:20:29;;;;;;;19.87;15.73;;;;;;;23.26;77.11;98595.16;4913656;29;20320;-87
2022/06/22 01:23:14;;;;;;;20.87;15.30;;;;;;;22.99;77.20;98558.72;4913711;29;20174;-87
2022/06/22 01:25:45;;;;;;;21.27;16.77;;;;;;;23.77;77.29;98677.69;4915577;29;20190;-89
2022/06/22 01:28:12;;;;;;;23.17;17.30;;;;;;;23.55;77.70;98654.03;4916049;29;20612;-89
2022/06/22 01:30:43;;;;;;;20.23;16.63;;;;;;;22.74;78.14;98512.69;4916446;29;20299;-89
2022/06/22 01:33:24;;;;;;;19.67;15.83;;;;;;;23.76;76.92;98666.50;4916061;29;20335;-87
2022/06/22 01:35:57;;;;;;;22.63;16.43;;;;;;;23.79;76.87;98666.44;4915115;29;20178;-86
2022/06/22 01:38:27;;;;;;;23.80;16.30;;;;;;;23.80;76.62;98656.94;4914366;29;20305;-86
2022/06/22 01:41:04;;;;;;;20.97;16.70;;;;;;;23.74;76.74;98660.50;4913931;29;20241;-86
2022/06/22 01:43:47;;;;;;;20.67;14.70;;;;;;;23.02;76.05;98548.31;4920858;29;20284;-89
2022/06/22 01:46:35;;;;;;;20.27;15.37;;;;;;;23.73;76.35;98661.41;4932871;29;20189;-86
2022/06/22 01:49:10;;;;;;;17.57;14.17;;;;;;;22.69;75.83;98473.22;4933949;29;20226;-88
2022/06/22 01:51:43;;;;;;;17.97;13.53;;;;;;;23.71;75.66;98658.00;4967076;28;20189;-87
2022/06/22 01:54:21;;;;;;;18.43;14.10;;;;;;;22.69;75.04;98477.56;5012518;28;20170;-86
2022/06/22 01:56:59;;;;;;;17.80;13.97;;;;;;;23.51;74.69;98618.81;5012161;28;20189;-86
2022/06/22 01:59:46;;;;;;;17.83;12.37;;;;;;;22.97;74.85;98516.56;5012130;28;20186;-86
2022/06/22 02:02:12;;;;;;;19.17;14.30;;;;;;;23.60;75.70;98651.34;5012332;28;20170;-86
2022/06/22 02:04:52;;;;;;;18.83;14.07;;;;;;;23.31;75.84;98606.25;5012817;28;20262;-88
2022/06/22 02:10:23;;;;;;;17.30;14.33;;;;;;;23.45;77.07;98647.34;5014325;28;20193;-88
2022/06/22 02:13:28;;;;;;;19.07;14.53;;;;;;;23.38;77.92;98662.09;5014238;28;20186;-88
2022/06/22 02:16:12;;;;;;;20.53;14.80;;;;;;;23.06;79.28;98668.72;5013558;28;20159;-88
2022/06/22 02:18:42;;;;;;;18.90;15.00;;;;;;;23.23;78.69;98664.09;5014328;28;20209;-88
2022/06/22 02:21:31;;;;;;;24.10;14.90;;;;;;;23.32;78.41;98664.75;5014062;28;20166;-88
2022/06/22 02:24:18;;;;;;;19.47;15.23;;;;;;;23.08;77.42;98611.00;5013530;28;20616;-88
2022/06/22 02:26:47;;;;;;;16.97;14.40;;;;;;;23.25;78.10;98665.78;5012410;28;20167;-87
2022/06/22 02:29:15;;;;;;;21.03;13.83;;;;;;;23.21;77.82;98661.53;5012437;28;20262;-87
2022/06/22 02:31:41;;;;;;;16.30;13.20;;;;;;;20.33;77.65;98201.59;5014464;28;20655;-88
2022/06/22 02:34:07;;;;;;;19.43;13.30;;;;;;;21.75;77.63;98423.31;5016170;28;20163;-88
2022/06/22 02:36:40;;;;;;;18.90;13.43;;;;;;;21.24;77.97;98335.75;5016983;28;20221;-88
2022/06/22 02:39:09;;;;;;;20.87;13.97;;;;;;;21.58;77.84;98375.53;5016697;28;20627;-88
2022/06/22 02:44:30;;;;;;;17.13;13.67;;;;;;;21.94;77.62;98431.63;5016769;28;20608;-87
2022/06/22 02:46:59;;;;;;;17.17;13.53;;;;;;;23.12;78.18;98648.81;5016041;28;20166;-87
2022/06/22 02:49:32;;;;;;;21.83;14.10;;;;;;;22.63;77.98;98553.34;5018028;28;20163;-88
2022/06/22 02:51:59;;;;;;;19.37;13.47;;;;;;;22.03;78.05;98489.91;5020155;28;20171;-88
2022/06/22 02:54:54;;;;;;;14.73;12.83;;;;;;;23.10;77.43;98640.22;5017313;28;20236;-88
2022/06/22 02:57:52;;;;;;;16.73;13.03;;;;;;;22.75;77.30;98572.91;4959760;29;20193;-89
2022/06/22 03:00:21;;;;;;;16.40;12.87;;;;;;;23.12;77.34;98642.78;4899370;29;20258;-87
2022/06/22 03:02:49;;;;;;;18.50;13.73;;;;;;;21.98;77.35;98460.75;4898009;29;20701;-86
2022/06/22 03:05:16;;;;;;;17.50;13.20;;;;;;;23.15;77.21;98645.31;4898511;29;20206;-87
2022/06/22 03:07:50;;;;;;;16.73;13.33;;;;;;;22.27;76.81;98492.94;4898710;29;20191;-88
2022/06/22 03:10:40;;;;;;;15.93;13.00;;;;;;;23.28;76.49;98654.53;4898113;29;20195;-85
2022/06/22 03:13:06;;;;;;;15.93;12.00;;;;;;;23.45;75.13;98647.34;4897357;29;20178;-86
2022/06/22 03:15:36;;;;;;;17.70;12.40;;;;;;;23.58;74.60;98653.97;4897202;29;20758;-87
2022/06/22 03:18:04;;;;;;;17.37;12.17;;;;;;;23.55;73.70;98623.00;4897022;29;20222;-87
2022/06/22 03:20:39;;;;;;;19.83;12.77;;;;;;;22.56;73.08;98435.63;4897493;29;20576;-86
2022/06/22 03:23:24;;;;;;;48.50;31.47;;;;;;;23.84;72.90;98646.50;4897376;29;20684;-87
2022/06/22 03:26:25;;;;;;;181.77;107.77;;;;;;;24.03;72.08;98650.38;4896920;29;20174;-86
2022/06/22 03:29:23;;;;;;;60.67;42.70;;;;;;;24.08;71.78;98645.97;4898004;29;20186;-84
2022/06/22 03:31:53;;;;;;;36.67;28.13;;;;;;;24.00;72.11;98649.63;4897340;29;20242;-88
2022/06/22 03:34:24;;;;;;;23.10;17.70;;;;;;;23.36;71.79;98555.34;4897881;29;20194;-86
2022/06/22 03:37:06;;;;;;;20.20;13.97;;;;;;;22.94;72.47;98475.34;4930694;29;20189;-86
2022/06/22 03:39:41;;;;;;;19.27;13.80;;;;;;;22.27;72.15;98352.81;4953878;29;20216;-86
2022/06/22 03:42:13;;;;;;;17.87;12.10;;;;;;;22.12;72.06;98335.06;4947013;28;20160;-86
2022/06/22 03:44:44;;;;;;;16.20;13.40;;;;;;;23.82;73.88;98648.28;4973220;28;20172;-86
2022/06/22 03:47:18;;;;;;;19.90;14.10;;;;;;;21.65;74.55;98312.72;4973946;28;20676;-86
2022/06/22 03:50:11;;;;;;;20.70;14.07;;;;;;;22.50;76.25;98461.53;4974561;28;20205;-86
2022/06/22 03:53:03;;;;;;;20.73;14.23;;;;;;;23.55;77.40;98648.84;4973915;28;20190;-87
2022/06/22 03:55:34;;;;;;;19.10;14.27;;;;;;;21.54;80.04;98342.97;4953745;29;20196;-86
2022/06/22 03:58:02;;;;;;;19.57;14.40;;;;;;;22.09;79.97;98451.13;4945336;29;20321;-88
2022/06/22 04:00:28;;;;;;;19.37;13.83;;;;;;;22.54;80.10;98514.78;4958292;29;20192;-88
2022/06/22 04:02:55;;;;;;;21.33;14.43;;;;;;;21.24;78.85;98274.81;4958645;29;20661;-90
2022/06/22 04:05:25;;;;;;;17.83;14.00;;;;;;;23.69;77.63;98654.59;4957826;28;20282;-85
2022/06/22 04:07:52;;;;;;;21.53;14.27;;;;;;;22.19;75.83;98373.59;4992451;28;20172;-85
2022/06/22 04:10:53;;;;;;;19.53;14.10;;;;;;;24.01;75.96;98640.97;4976201;28;20230;-86
2022/06/22 04:13:23;;;;;;;22.73;14.53;;;;;;;23.83;75.91;98613.78;4934699;29;20185;-85
2022/06/22 04:15:52;;;;;;;21.73;14.90;;;;;;;24.09;75.74;98644.25;4934887;29;20548;-88
2022/06/22 04:18:23;;;;;;;19.07;14.60;;;;;;;24.19;75.52;98642.31;4934969;29;20217;-86
2022/06/22 04:20:56;;;;;;;22.13;14.47;;;;;;;23.01;75.71;98446.78;4938317;29;20223;-88
2022/06/22 04:23:34;;;;;;;21.13;14.57;;;;;;;21.87;75.18;98241.03;4940413;29;20193;-88
2022/06/22 04:26:11;;;;;;;18.90;14.43;;;;;;;21.61;76.40;98197.75;4956952;29;20193;-87
2022/06/22 04:28:41;;;;;;;18.03;14.50;;;;;;;21.58;76.16;98193.50;4946019;29;20193;-87
2022/06/22 04:31:14;;;;;;;22.97;14.67;;;;;;;21.25;76.20;98154.66;4941210;29;20587;-88
2022/06/22 04:33:58;;;;;;;20.13;14.37;;;;;;;22.51;76.64;98354.91;4933225;29;20180;-87
2022/06/22 04:36:26;;;;;;;20.60;15.03;;;;;;;21.62;76.81;98202.84;4934752;29;20185;-87
2022/06/22 04:39:00;;;;;;;19.27;14.07;;;;;;;23.73;76.79;98545.09;4934954;29;20233;-88
2022/06/22 04:41:30;;;;;;;22.90;14.87;;;;;;;24.58;76.08;98643.97;4935649;29;20287;-86
2022/06/22 04:44:01;;;;;;;22.67;14.10;;;;;;;22.39;74.07;98264.88;4934147;29;20182;-88
2022/06/22 04:46:36;;;;;;;22.10;14.60;;;;;;;24.64;72.82;98623.09;4936275;29;20193;-89
2022/06/22 04:49:26;;;;;;;21.13;13.03;;;;;;;24.25;71.74;98516.28;4963682;28;20186;-86
2022/06/22 04:51:59;;;;;;;18.93;13.57;;;;;;;25.02;71.63;98648.91;4973587;28;20195;-89
2022/06/22 04:54:30;;;;;;;19.53;14.23;;;;;;;24.15;71.91;98496.69;4972532;28;20660;-87
2022/06/22 04:56:58;;;;;;;17.57;12.43;;;;;;;25.32;69.66;98661.94;4973386;28;20635;-87
2022/06/22 04:59:25;;;;;;;16.50;13.20;;;;;;;25.47;69.17;98664.97;4974136;28;20188;-88
2022/06/22 05:01:56;;;;;;;17.93;13.43;;;;;;;24.86;68.64;98520.69;4973709;28;20234;-88
2022/06/22 05:04:38;;;;;;;19.53;13.87;;;;;;;25.76;68.10;98662.41;4959228;28;20188;-88
2022/06/22 05:07:03;;;;;;;14.70;12.47;;;;;;;25.88;67.01;98660.31;4975467;28;20175;-89
2022/06/22 05:09:49;;;;;;;15.97;12.83;;;;;;;25.93;67.11;98672.25;4975220;28;20200;-89
2022/06/22 05:12:21;;;;;;;22.47;13.10;;;;;;;25.87;67.23;98669.03;4933154;29;20594;-88
2022/06/22 05:14:49;;;;;;;18.47;13.53;;;;;;;24.74;67.83;98466.66;4936343;29;20240;-88
2022/06/22 05:17:41;;;;;;;18.17;13.18;;;;;;;25.65;68.30;98632.50;4918649;29;20228;-88
2022/06/22 05:20:14;;;;;;;18.13;13.93;;;;;;;24.79;67.62;98475.16;4876672;29;20203;-87
2022/06/22 05:22:40;;;;;;;16.58;13.25;;;;;;;26.36;67.05;98693.47;4876727;29;20198;-88
2022/06/22 05:25:10;;;;;;;15.73;12.98;;;;;;;26.70;64.94;98698.44;4876541;29;20201;-88
2022/06/22 05:28:01;;;;;;;18.08;13.00;;;;;;;26.70;64.31;98700.19;4876643;29;20185;-88
2022/06/22 05:30:34;;;;;;;16.30;13.10;;;;;;;26.87;63.44;98645.94;4876600;29;20198;-88
2022/06/22 05:33:06;;;;;;;18.77;13.20;;;;;;;27.34;62.01;98694.56;4877110;29;20213;-89
2022/06/22 05:35:37;;;;;;;16.88;12.45;;;;;;;27.40;60.96;98696.97;4884179;29;20182;-89
2022/06/22 05:38:07;;;;;;;15.85;12.68;;;;;;;27.30;61.08;98679.13;4880293;29;20729;-85
2022/06/22 05:40:34;;;;;;;14.75;12.82;;;;;;;26.96;61.36;98645.66;4877740;29;20274;-89
2022/06/22 05:43:00;;;;;;;16.65;12.93;;;;;;;25.00;60.91;98310.53;4876241;29;20316;-83
2022/06/22 05:45:29;;;;;;;18.52;12.38;;;;;;;27.57;61.19;98687.72;4877770;29;20692;-89
2022/06/22 05:47:56;;;;;;;17.02;12.52;;;;;;;25.66;60.82;98388.72;4879654;29;20164;-89
2022/06/22 05:50:52;;;;;;;18.10;12.60;;;;;;;27.54;60.14;98693.88;4929340;29;20713;-87
2022/06/22 05:53:29;;;;;;;17.48;12.77;;;;;;;27.55;59.46;98702.53;4917896;29;20204;-90
2022/06/22 05:56:05;;;;;;;16.60;12.80;;;;;;;27.73;59.83;98715.72;4925152;28;20673;-91
2022/06/22 05:58:59;;;;;;;17.30;12.77;;;;;;;26.94;59.48;98564.31;4976822;28;20214;-87
2022/06/22 06:01:33;;;;;;;16.50;11.93;;;;;;;27.91;58.49;98695.97;4979419;28;20170;-87
2022/06/22 06:04:07;;;;;;;17.42;12.05;;;;;;;27.50;57.61;98598.66;4975483;28;20272;-87
2022/06/22 06:06:39;;;;;;;19.95;12.60;;;;;;;27.44;56.52;98610.13;4979768;28;20864;-85
2022/06/22 06:09:22;;;;;;;17.63;11.80;;;;;;;27.34;57.00;98613.97;4991132;28;20169;-86
2022/06/22 06:12:16;;;;;;;17.60;12.95;;;;;;;28.40;57.17;98692.38;4985659;28;20180;-89
2022/06/22 06:14:46;;;;;;;14.40;12.02;;;;;;;27.81;56.28;98604.41;4983867;28;20244;-84
2022/06/22 06:17:19;;;;;;;17.42;12.93;;;;;;;27.48;57.34;98538.06;4974074;28;20190;-86
2022/06/22 06:19:50;;;;;;;15.70;12.23;;;;;;;28.13;57.30;98610.97;4979779;28;20233;-85
2022/06/22 06:22:17;;;;;;;20.45;12.57;;;;;;;28.72;57.12;98678.09;4973674;28;20171;-90
2022/06/22 06:27:40;;;;;;;17.85;13.40;;;;;;;28.27;58.25;98689.41;4972827;28;20212;-86
2022/06/22 06:30:23;;;;;;;17.10;13.57;;;;;;;28.58;57.52;98676.00;4984453;28;20280;-85
2022/06/22 06:33:17;;;;;;;19.27;14.10;;;;;;;28.86;57.55;98696.59;5012919;28;20170;-85
2022/06/22 06:35:51;;;;;;;17.20;13.52;;;;;;;28.79;56.63;98637.84;5013555;28;20167;-87
2022/06/22 06:38:21;;;;;;;16.55;13.75;;;;;;;28.76;56.47;98690.91;5012575;28;20717;-88
2022/06/22 06:41:07;;;;;;;16.88;12.75;;;;;;;28.36;57.90;98647.38;5013988;28;20224;-89
2022/06/22 06:43:50;;;;;;;19.23;14.32;;;;;;;28.58;57.39;98695.09;5017961;28;20170;-90
2022/06/22 06:46:29;;;;;;;19.25;13.60;;;;;;;28.26;58.32;98692.94;5011790;28;20165;-85
2022/06/22 06:49:10;;;;;;;18.77;13.82;;;;;;;27.47;57.54;98510.38;4994219;28;20186;-85
2022/06/22 06:51:41;;;;;;;18.10;14.60;;;;;;;28.77;57.50;98691.75;5011831;28;20176;-86
2022/06/22 06:54:27;;;;;;;17.10;13.30;;;;;;;29.05;56.17;98674.94;5012999;28;20249;-85
2022/06/22 06:57:03;;;;;;;18.30;14.20;;;;;;;29.22;56.14;98676.84;5011298;28;20150;-85
2022/06/22 06:59:30;;;;;;;17.13;13.63;;;;;;;27.74;55.44;98446.03;5011095;28;20218;-86
2022/06/22 07:02:04;;;;;;;23.48;14.32;;;;;;;29.46;55.77;98683.59;5015486;28;20252;-88
2022/06/22 07:04:34;;;;;;;21.38;13.90;;;;;;;29.77;54.90;98683.94;5002958;28;20323;-89
2022/06/22 07:07:12;;;;;;;17.60;13.63;;;;;;;29.18;56.17;98668.28;5019567;28;20191;-91
2022/06/22 07:10:00;;;;;;;19.80;15.00;;;;;;;28.63;54.84;98476.97;5121818;27;20583;-88
2022/06/22 07:12:48;;;;;;;21.80;15.15;;;;;;;30.20;53.42;98689.81;5124937;28;20205;-87
2022/06/22 07:15:20;;;;;;;17.27;14.57;;;;;;;29.05;53.92;98504.63;5107969;28;20188;-87
2022/06/22 07:17:49;;;;;;;20.23;15.45;;;;;;;28.94;55.15;98519.91;5111658;28;20211;-87
2022/06/22 07:20:36;;;;;;;21.17;15.38;;;;;;;29.44;55.32;98651.53;5110432;28;20183;-87
2022/06/22 07:23:38;;;;;;;19.35;14.85;;;;;;;29.58;56.02;98693.50;5111606;28;20207;-91
2022/06/22 07:26:26;;;;;;;18.70;15.20;;;;;;;29.34;55.73;98623.31;5053343;28;20201;-86
2022/06/22 07:29:18;;;;;;;21.67;15.38;;;;;;;29.43;55.84;98600.25;5050678;28;20213;-86
2022/06/22 07:31:54;;;;;;;19.60;15.65;;;;;;;30.30;54.37;98697.13;4971751;28;20247;-86
2022/06/22 07:34:27;;;;;;;19.50;15.43;;;;;;;29.90;55.95;98693.84;4970824;28;20251;-88
2022/06/22 07:37:03;;;;;;;21.38;16.77;;;;;;;29.78;55.98;98633.41;4978551;28;20215;-89
2022/06/22 07:39:46;;;;;;;18.92;15.70;;;;;;;30.39;54.65;98698.50;4977334;28;20194;-86
2022/06/22 07:42:12;;;;;;;18.83;16.50;;;;;;;30.49;53.71;98701.53;4971956;28;20191;-83
2022/06/22 07:44:38;;;;;;;22.13;17.00;;;;;;;30.25;52.82;98606.84;4971975;28;20203;-86
2022/06/22 07:47:33;;;;;;;18.40;15.77;;;;;;;30.11;52.26;98589.25;4969601;28;20254;-86
2022/06/22 07:50:16;;;;;;;20.63;15.52;;;;;;;29.88;50.84;98479.88;4951456;28;20215;-85
2022/06/22 07:52:52;;;;;;;20.13;16.40;;;;;;;30.61;53.08;98688.69;4974938;28;20206;-88
2022/06/22 07:55:42;;;;;;;19.83;15.63;;;;;;;30.62;52.26;98698.25;4982174;28;20287;-90
2022/06/22 07:58:20;;;;;;;20.65;16.00;;;;;;;29.80;52.00;98565.53;4952852;28;20192;-87
2022/06/22 08:00:54;;;;;;;20.50;16.33;;;;;;;30.55;53.00;98698.59;4931504;29;20200;-85
2022/06/22 08:03:32;;;;;;;18.40;15.18;;;;;;;27.72;52.47;98242.34;4987778;28;20230;-88
2022/06/22 08:06:04;;;;;;;19.45;15.70;;;;;;;30.10;51.60;98544.94;5024943;28;20287;-88
2022/06/22 08:08:53;;;;;;;18.23;15.65;;;;;;;31.34;46.21;98695.53;5041425;28;20227;-87
2022/06/22 08:11:32;;;;;;;17.83;14.60;;;;;;;31.21;46.24;98611.59;5071482;28;20180;-87
2022/06/22 08:14:11;;;;;;;19.98;14.98;;;;;;;32.19;45.19;98676.13;5071588;28;20179;-85
2022/06/22 08:16:48;;;;;;;17.15;14.60;;;;;;;31.59;45.35;98572.09;5067895;28;20737;-85
2022/06/22 08:19:15;;;;;;;20.58;15.00;;;;;;;31.21;44.23;98417.16;5064759;28;20242;-88
2022/06/22 08:21:43;;;;;;;21.30;14.70;;;;;;;31.11;44.51;98473.53;5053245;28;20185;-84
2022/06/22 08:24:11;;;;;;;19.13;14.07;;;;;;;32.78;42.90;98696.34;5051652;28;20185;-85
2022/06/22 08:26:37;;;;;;;18.45;13.30;;;;;;;32.22;42.03;98559.84;5051603;28;20242;-86
2022/06/22 08:29:05;;;;;;;19.50;14.00;;;;;;;32.56;41.81;98614.63;5053637;28;20209;-86
2022/06/22 08:31:42;;;;;;;20.33;13.38;;;;;;;31.63;42.26;98590.16;5063131;28;20189;-89
2022/06/22 08:34:12;;;;;;;19.23;13.52;;;;;;;31.81;43.26;98638.91;5066600;28;20189;-89
2022/06/22 08:36:47;;;;;;;19.58;14.02;;;;;;;32.91;42.78;98701.75;5063133;28;20200;-88
2022/06/22 08:39:23;;;;;;;17.20;14.15;;;;;;;32.78;42.57;98691.13;5055651;28;20172;-85
2022/06/22 08:41:52;;;;;;;20.58;15.57;;;;;;;32.83;41.63;98622.66;5052330;28;20207;-85
2022/06/22 08:44:37;;;;;;;24.98;14.07;;;;;;;33.66;41.05;98701.63;5050752;28;20193;-86
2022/06/22 08:47:05;;;;;;;20.65;13.13;;;;;;;33.90;40.03;98705.38;5053453;28;20241;-89
2022/06/22 08:49:42;;;;;;;28.20;22.55;;;;;;;33.61;40.18;98706.34;5052428;28;20205;-87
2022/06/22 08:52:10;;;;;;;29.52;18.77;;;;;;;33.85;40.96;98715.31;5052272;28;20637;-88
2022/06/22 08:55:00;;;;;;;19.13;14.00;;;;;;;33.10;40.95;98718.97;5052417;28;20181;-88
2022/06/22 08:57:41;;;;;;;16.85;13.23;;;;;;;33.28;41.07;98708.31;5052463;28;20180;-91
2022/06/22 09:00:17;;;;;;;20.25;13.65;;;;;;;33.48;41.37;98715.88;5051990;28;20189;-88
2022/06/22 09:03:01;;;;;;;21.48;13.75;;;;;;;33.82;41.56;98710.25;5026330;28;20583;-85
2022/06/22 09:05:44;;;;;;;17.92;13.70;;;;;;;33.94;39.99;98701.63;5065132;28;20201;-91
2022/06/22 09:08:10;;;;;;;15.07;12.73;;;;;;;33.99;39.48;98696.94;5055556;28;20286;-85
2022/06/22 09:10:50;;;;;;;19.13;14.23;;;;;;;33.42;39.48;98533.31;5052107;28;20177;-86
2022/06/22 09:13:31;;;;;;;19.35;13.00;;;;;;;33.74;39.70;98687.09;5051930;28;20177;-84
2022/06/22 09:16:25;;;;;;;20.65;13.57;;;;;;;33.83;39.86;98686.53;5051517;28;20213;-85
2022/06/22 09:18:59;;;;;;;19.85;13.68;;;;;;;34.04;39.51;98678.22;5051485;28;20197;-86
2022/06/22 09:21:50;;;;;;;16.05;13.52;;;;;;;34.51;40.09;98680.47;5051348;28;20259;-86
2022/06/22 09:24:37;;;;;;;18.63;13.57;;;;;;;33.99;39.93;98681.16;5049871;28;20288;-88
2022/06/22 09:27:23;;;;;;;18.15;13.57;;;;;;;33.49;39.14;98621.25;5049470;28;20248;-85
2022/06/22 09:29:52;;;;;;;20.00;14.43;;;;;;;33.79;40.33;98671.03;5052704;28;20217;-88
2022/06/22 09:32:29;;;;;;;18.83;13.93;;;;;;;32.85;42.15;98675.88;5051366;28;20220;-90
2022/06/22 09:35:00;;;;;;;20.20;14.77;;;;;;;33.11;40.94;98668.19;5050002;28;20704;-88
2022/06/22 09:37:51;;;;;;;19.77;14.60;;;;;;;32.54;41.16;98579.81;5021461;28;20194;-90
2022/06/22 09:40:23;;;;;;;21.90;14.40;;;;;;;32.69;43.39;98670.66;5034395;28;20193;-87
2022/06/22 09:43:12;;;;;;;20.05;13.77;;;;;;;31.81;45.97;98664.25;5031654;28;20244;-89
2022/06/22 09:45:43;;;;;;;19.10;15.00;;;;;;;31.58;48.16;98660.25;5019007;28;20189;-88
2022/06/22 09:48:33;;;;;;;18.45;14.68;;;;;;;31.22;46.60;98680.44;5017894;28;20258;-88
2022/06/22 09:51:23;;;;;;;19.90;14.80;;;;;;;31.12;47.28;98687.94;5029552;28;20215;-87
2022/06/22 09:57:36;;;;;;;21.15;15.98;;;;;;;29.31;47.65;98355.66;4951149;28;20581;-87
2022/06/22 10:00:24;;;;;;;19.35;15.75;;;;;;;31.12;47.67;98661.78;4975291;28;20192;-88
2022/06/22 10:03:21;;;;;;;22.58;15.68;;;;;;;31.02;48.20;98581.22;4965040;28;20213;-86
2022/06/22 10:06:05;;;;;;;25.95;16.63;;;;;;;31.95;47.26;98653.84;4969934;28;20203;-88
2022/06/22 10:08:40;;;;;;;20.23;15.32;;;;;;;33.22;45.28;98664.91;4970835;28;20231;-89
2022/06/22 10:11:05;;;;;;;21.55;16.58;;;;;;;33.61;43.88;98659.91;4976560;28;20197;-90
2022/06/22 10:13:48;;;;;;;19.85;16.23;;;;;;;33.45;43.20;98655.66;4974313;28;20263;-88
2022/06/22 10:16:19;;;;;;;17.60;15.20;;;;;;;33.60;41.86;98655.59;4974921;28;20570;-90
2022/06/22 10:19:06;;;;;;;17.23;15.25;;;;;;;33.38;41.86;98659.59;4974228;28;20337;-90
2022/06/22 10:21:37;;;;;;;18.92;15.15;;;;;;;33.71;40.51;98652.31;4970825;28;20207;-88
2022/06/22 10:24:18;;;;;;;19.23;14.63;;;;;;;33.60;40.97;98645.09;4970589;28;20286;-89
2022/06/22 10:27:02;;;;;;;20.92;14.38;;;;;;;33.80;39.58;98663.09;4973292;28;20700;-91
2022/06/22 10:29:48;;;;;;;22.50;14.88;;;;;;;33.88;40.80;98656.50;4988443;28;20573;-89
2022/06/22 10:32:44;;;;;;;19.00;14.70;;;;;;;34.27;40.36;98649.59;4974415;28;20226;-91
2022/06/22 10:35:15;;;;;;;18.83;13.40;;;;;;;34.18;38.65;98660.69;5070444;28;20219;-88
2022/06/22 10:38:03;;;;;;;14.07;11.35;;;;;;;32.59;37.26;98522.72;5072839;28;20207;-86
2022/06/22 10:46:46;;;;;;;21.13;13.20;;;;;;;32.38;40.92;98675.94;5052628;28;20192;-87
2022/06/22 10:49:23;;;;;;;16.80;11.82;;;;;;;31.79;43.06;98664.31;5045041;28;20708;-87
2022/06/22 10:52:26;;;;;;;21.20;11.95;;;;;;;31.57;42.58;98679.47;5013181;28;20212;-88
2022/06/22 10:55:13;;;;;;;16.23;11.18;;;;;;;31.72;42.90;98680.44;5029275;28;20197;-89
2022/06/22 10:57:58;;;;;;;15.25;11.93;;;;;;;31.58;43.16;98683.81;5032952;28;20193;-88
2022/06/22 11:00:39;;;;;;;14.40;12.15;;;;;;;30.56;44.38;98513.00;5040675;28;20709;-88
2022/06/22 11:03:22;;;;;;;17.63;12.00;;;;;;;31.07;45.36;98676.84;5019797;28;20182;-90
2022/06/22 11:05:57;;;;;;;16.52;12.20;;;;;;;29.46;45.87;98416.69;5012687;28;20184;-88
2022/06/22 11:08:35;;;;;;;17.10;12.80;;;;;;;30.85;46.28;98671.81;5028050;28;20237;-89
2022/06/22 11:11:13;;;;;;;20.15;13.20;;;;;;;30.91;47.22;98673.28;5030470;28;20200;-89
2022/06/22 11:13:54;;;;;;;25.60;13.88;;;;;;;30.44;48.36;98639.03;5011457;28;20228;-88
2022/06/22 11:16:54;;;;;;;17.95;13.65;;;;;;;30.37;49.51;98685.53;5028230;28;20687;-86
2022/06/22 11:19:53;;;;;;;18.15;14.20;;;;;;;30.17;51.70;98682.09;4970429;28;20195;-89
2022/06/22 11:22:32;;;;;;;18.55;13.07;;;;;;;29.90;51.76;98665.13;4970552;28;20916;-88
2022/06/22 11:25:15;;;;;;;17.08;12.73;;;;;;;29.77;52.63;98660.44;4970644;28;20206;-88
2022/06/22 11:31:31;;;;;;;17.60;13.95;;;;;;;28.95;53.70;98539.84;5028640;28;20200;-88
2022/06/22 11:34:13;;;;;;;20.38;13.43;;;;;;;31.12;50.72;98663.53;5031476;28;20193;-88
2022/06/22 11:36:52;;;;;;;17.33;13.45;;;;;;;31.80;48.50;98663.41;5029438;28;20243;-87
2022/06/22 11:39:41;;;;;;;24.35;14.02;;;;;;;32.54;46.68;98667.16;5018283;28;20208;-85
2022/06/22 11:42:27;;;;;;;18.50;12.40;;;;;;;33.01;43.64;98611.09;5028074;28;20200;-88
2022/06/22 11:48:25;;;;;;;18.65;11.50;;;;;;;33.80;41.05;98620.22;4995822;28;20207;-87
2022/06/22 11:51:06;;;;;;;19.48;10.77;;;;;;;34.86;39.52;98682.50;4996394;28;20660;-88
2022/06/22 11:53:47;;;;;;;17.05;8.73;;;;;;;34.80;37.81;98697.88;4997537;28;20819;-88
2022/06/22 11:56:37;;;;;;;13.95;9.18;;;;;;;34.14;39.17;98690.75;5022262;28;20256;-90
2022/06/22 11:59:24;;;;;;;13.98;8.50;;;;;;;34.88;38.15;98685.06;5017012;28;20202;-89
2022/06/22 12:01:59;;;;;;;11.98;7.57;;;;;;;32.51;41.21;98553.75;5012552;28;20222;-89
2022/06/22 12:04:40;;;;;;;15.05;7.53;;;;;;;33.65;40.72;98694.72;4985787;28;20175;-86
2022/06/22 12:07:33;;;;;;;15.70;9.43;;;;;;;32.72;43.73;98695.88;4993454;28;20198;-88
2022/06/22 12:10:29;;;;;;;14.85;8.90;;;;;;;33.08;42.09;98683.25;4994988;28;20762;-90
2022/06/22 12:12:56;;;;;;;18.33;12.95;;;;;;;31.97;46.67;98645.00;4994304;28;20684;-88
2022/06/22 12:15:27;;;;;;;15.32;11.52;;;;;;;32.84;45.46;98684.66;4998119;28;20175;-89
2022/06/22 12:18:11;;;;;;;17.67;12.27;;;;;;;30.90;45.91;98382.22;4994709;28;20269;-88
2022/06/22 12:21:04;;;;;;;17.20;12.88;;;;;;;32.80;46.39;98680.56;5055715;28;20233;-89
2022/06/22 12:23:57;;;;;;;18.92;12.95;;;;;;;31.93;48.62;98677.50;5038001;28;20253;-88
2022/06/22 12:26:35;;;;;;;18.23;13.20;;;;;;;30.08;51.27;98526.72;5054021;28;20701;-88
2022/06/22 12:29:20;;;;;;;21.17;11.43;;;;;;;30.79;48.63;98677.34;5052610;28;20210;-86
2022/06/22 12:31:51;;;;;;;21.15;12.13;;;;;;;30.84;50.10;98701.50;5052652;28;20219;-85